Crawley, United Kingdom
Current Conditions -  °F | °C
As of 10:20 AM on Tuesday 21 Oct 2014 (Local Time) from EGKK Reporting Station
Scattered Clouds Scattered Clouds  
Wind Chill: 57°   Ceiling: Unl
Heat Index: 57°   Visibility: 6mi
Dew Point: 48°   Wind: 23mph
Humidity: 72%   Direction: 270°W
Pressure: 29.62"   Gusts: NA
Location:  51.11°N, 0.18°W
Report Text: EGKK 210920Z 27020KT 9999 FEW024 SCT036 14/09 Q1003
Loading
Personal Weather Stations






























Interactive Weather Map
Tropical Storm Tracking
New forecast layout! Learn more

10-Day Weather Forecast

Advertisements
Track Severe Weather on mobile